sensor_id;sensor_type;location;lat;lon;timestamp;temperature;humidity
41924;DHT22;27613;48.116;11.656;2023-11-21T00:01:35;6.90;99.90
41924;DHT22;27613;48.116;11.656;2023-11-21T00:04:01;6.90;99.90
41924;DHT22;27613;48.116;11.656;2023-11-21T00:06:27;6.90;99.90
41924;DHT22;27613;48.116;11.656;2023-11-21T00:08:52;6.90;99.90
41924;DHT22;27613;48.116;11.656;2023-11-21T00:11:18;6.90;99.90
41924;DHT22;27613;48.116;11.656;2023-11-21T00:13:44;6.80;99.90
41924;DHT22;27613;48.116;11.656;2023-11-21T00:16:10;6.60;99.90
41924;DHT22;27613;48.116;11.656;2023-11-21T00:18:36;6.60;99.90
41924;DHT22;27613;48.116;11.656;2023-11-21T00:21:02;6.50;99.90
41924;DHT22;27613;48.116;11.656;2023-11-21T00:23:29;6.50;99.90
41924;DHT22;27613;48.116;11.656;2023-11-21T00:25:54;6.50;99.90
41924;DHT22;27613;48.116;11.656;2023-11-21T00:28:20;6.50;99.90
41924;DHT22;27613;48.116;11.656;2023-11-21T00:30:45;6.40;99.90
41924;DHT22;27613;48.116;11.656;2023-11-21T00:33:11;6.40;99.90
41924;DHT22;27613;48.116;11.656;2023-11-21T00:35:36;6.50;99.90
41924;DHT22;27613;48.116;11.656;2023-11-21T00:38:02;6.50;99.90
41924;DHT22;27613;48.116;11.656;2023-11-21T00:40:28;6.50;99.90
41924;DHT22;27613;48.116;11.656;2023-11-21T00:42:54;6.50;99.90
41924;DHT22;27613;48.116;11.656;2023-11-21T00:45:21;6.40;99.90
41924;DHT22;27613;48.116;11.656;2023-11-21T00:47:46;6.40;99.90
41924;DHT22;27613;48.116;11.656;2023-11-21T00:50:12;6.40;99.90
41924;DHT22;27613;48.116;11.656;2023-11-21T00:52:38;6.40;99.90
41924;DHT22;27613;48.116;11.656;2023-11-21T00:55:04;6.30;99.90
41924;DHT22;27613;48.116;11.656;2023-11-21T00:57:32;6.30;99.90
41924;DHT22;27613;48.116;11.656;2023-11-21T00:59:58;6.30;99.90
41924;DHT22;27613;48.116;11.656;2023-11-21T01:02:23;6.30;99.90
41924;DHT22;27613;48.116;11.656;2023-11-21T01:04:50;6.30;99.90
41924;DHT22;27613;48.116;11.656;2023-11-21T01:07:16;6.30;99.90
41924;DHT22;27613;48.116;11.656;2023-11-21T01:09:41;6.30;99.90
41924;DHT22;27613;48.116;11.656;2023-11-21T01:12:09;6.30;99.90
41924;DHT22;27613;48.116;11.656;2023-11-21T01:14:35;6.30;99.90
41924;DHT22;27613;48.116;11.656;2023-11-21T01:17:02;6.20;99.90
41924;DHT22;27613;48.116;11.656;2023-11-21T01:19:29;6.10;99.90
41924;DHT22;27613;48.116;11.656;2023-11-21T01:21:55;6.10;99.90
41924;DHT22;27613;48.116;11.656;2023-11-21T01:24:21;6.10;99.90
41924;DHT22;27613;48.116;11.656;2023-11-21T01:26:46;6.10;99.90
41924;DHT22;27613;48.116;11.656;2023-11-21T01:29:12;6.10;99.90
41924;DHT22;27613;48.116;11.656;2023-11-21T01:31:37;6.10;99.90
41924;DHT22;27613;48.116;11.656;2023-11-21T01:34:03;6.00;99.90
41924;DHT22;27613;48.116;11.656;2023-11-21T01:36:31;6.00;99.90
41924;DHT22;27613;48.116;11.656;2023-11-21T01:38:59;6.00;99.90
41924;DHT22;27613;48.116;11.656;2023-11-21T01:41:26;6.00;99.90
41924;DHT22;27613;48.116;11.656;2023-11-21T01:43:52;6.00;99.90
41924;DHT22;27613;48.116;11.656;2023-11-21T01:46:19;6.00;99.90
41924;DHT22;27613;48.116;11.656;2023-11-21T01:48:46;6.00;99.90
41924;DHT22;27613;48.116;11.656;2023-11-21T01:51:12;6.00;99.90
41924;DHT22;27613;48.116;11.656;2023-11-21T01:53:38;5.90;99.90
41924;DHT22;27613;48.116;11.656;2023-11-21T01:56:05;5.90;99.90
41924;DHT22;27613;48.116;11.656;2023-11-21T01:58:32;5.90;99.90
41924;DHT22;27613;48.116;11.656;2023-11-21T02:00:58;5.90;99.90
41924;DHT22;27613;48.116;11.656;2023-11-21T02:03:24;6.00;99.90
41924;DHT22;27613;48.116;11.656;2023-11-21T02:05:49;6.00;99.90
41924;DHT22;27613;48.116;11.656;2023-11-21T02:08:15;6.00;99.90
41924;DHT22;27613;48.116;11.656;2023-11-21T02:10:41;6.00;99.90
41924;DHT22;27613;48.116;11.656;2023-11-21T02:13:06;6.00;99.90
41924;DHT22;27613;48.116;11.656;2023-11-21T02:15:32;6.10;99.90
41924;DHT22;27613;48.116;11.656;2023-11-21T02:17:57;6.10;99.90
41924;DHT22;27613;48.116;11.656;2023-11-21T02:20:24;6.10;99.90
41924;DHT22;27613;48.116;11.656;2023-11-21T02:22:55;6.20;99.90
41924;DHT22;27613;48.116;11.656;2023-11-21T02:25:27;6.20;99.90
41924;DHT22;27613;48.116;11.656;2023-11-21T02:27:53;6.10;99.90
41924;DHT22;27613;48.116;11.656;2023-11-21T02:30:21;6.20;99.90
41924;DHT22;27613;48.116;11.656;2023-11-21T02:32:48;6.20;99.90
41924;DHT22;27613;48.116;11.656;2023-11-21T02:35:14;6.20;99.90
41924;DHT22;27613;48.116;11.656;2023-11-21T02:37:41;6.20;99.90
41924;DHT22;27613;48.116;11.656;2023-11-21T02:40:09;6.20;99.90
41924;DHT22;27613;48.116;11.656;2023-11-21T02:42:35;6.20;99.90
41924;DHT22;27613;48.116;11.656;2023-11-21T02:45:01;6.30;99.90
41924;DHT22;27613;48.116;11.656;2023-11-21T02:47:26;6.40;99.90
41924;DHT22;27613;48.116;11.656;2023-11-21T02:49:52;6.40;99.90
41924;DHT22;27613;48.116;11.656;2023-11-21T02:52:21;6.30;99.90
41924;DHT22;27613;48.116;11.656;2023-11-21T02:54:47;6.20;99.90
41924;DHT22;27613;48.116;11.656;2023-11-21T02:57:12;6.20;99.90
41924;DHT22;27613;48.116;11.656;2023-11-21T02:59:39;6.10;99.90
41924;DHT22;27613;48.116;11.656;2023-11-21T03:02:04;6.00;99.90
41924;DHT22;27613;48.116;11.656;2023-11-21T03:04:33;6.00;99.90
41924;DHT22;27613;48.116;11.656;2023-11-21T03:07:00;6.00;99.90
41924;DHT22;27613;48.116;11.656;2023-11-21T03:09:26;5.90;99.90
41924;DHT22;27613;48.116;11.656;2023-11-21T03:11:53;5.90;99.90
41924;DHT22;27613;48.116;11.656;2023-11-21T03:14:21;6.00;99.90
41924;DHT22;27613;48.116;11.656;2023-11-21T03:16:47;6.00;99.90
41924;DHT22;27613;48.116;11.656;2023-11-21T03:19:13;6.00;99.90
41924;DHT22;27613;48.116;11.656;2023-11-21T03:21:40;6.00;99.90
41924;DHT22;27613;48.116;11.656;2023-11-21T03:24:06;6.00;99.90
41924;DHT22;27613;48.116;11.656;2023-11-21T03:26:32;6.00;99.90
41924;DHT22;27613;48.116;11.656;2023-11-21T03:28:58;6.00;99.90
41924;DHT22;27613;48.116;11.656;2023-11-21T03:31:23;6.00;99.90
41924;DHT22;27613;48.116;11.656;2023-11-21T03:33:52;6.00;99.90
41924;DHT22;27613;48.116;11.656;2023-11-21T03:36:22;6.00;99.90
41924;DHT22;27613;48.116;11.656;2023-11-21T03:38:48;6.00;99.90
41924;DHT22;27613;48.116;11.656;2023-11-21T03:41:14;6.10;99.90
41924;DHT22;27613;48.116;11.656;2023-11-21T03:43:40;6.00;99.90
41924;DHT22;27613;48.116;11.656;2023-11-21T03:46:05;6.10;99.90
41924;DHT22;27613;48.116;11.656;2023-11-21T03:48:32;6.10;99.90
41924;DHT22;27613;48.116;11.656;2023-11-21T03:50:58;6.10;99.90
41924;DHT22;27613;48.116;11.656;2023-11-21T03:53:24;6.00;99.90
41924;DHT22;27613;48.116;11.656;2023-11-21T03:55:49;6.00;99.90
41924;DHT22;27613;48.116;11.656;2023-11-21T03:58:15;6.10;99.90
41924;DHT22;27613;48.116;11.656;2023-11-21T04:00:40;6.10;99.90
41924;DHT22;27613;48.116;11.656;2023-11-21T04:03:06;6.10;99.90
41924;DHT22;27613;48.116;11.656;2023-11-21T04:05:32;6.10;99.90
41924;DHT22;27613;48.116;11.656;2023-11-21T04:07:57;6.00;99.90
41924;DHT22;27613;48.116;11.656;2023-11-21T04:10:23;6.00;99.90
41924;DHT22;27613;48.116;11.656;2023-11-21T04:12:49;5.90;99.90
41924;DHT22;27613;48.116;11.656;2023-11-21T04:15:14;6.00;99.90
41924;DHT22;27613;48.116;11.656;2023-11-21T04:17:41;5.90;99.90
41924;DHT22;27613;48.116;11.656;2023-11-21T04:20:07;5.90;99.90
41924;DHT22;27613;48.116;11.656;2023-11-21T04:22:39;5.90;99.90
41924;DHT22;27613;48.116;11.656;2023-11-21T04:25:13;5.90;99.90
41924;DHT22;27613;48.116;11.656;2023-11-21T04:27:40;5.90;99.90
41924;DHT22;27613;48.116;11.656;2023-11-21T04:30:06;5.90;99.90
41924;DHT22;27613;48.116;11.656;2023-11-21T04:32:32;5.90;99.90
41924;DHT22;27613;48.116;11.656;2023-11-21T04:34:58;5.80;99.90
41924;DHT22;27613;48.116;11.656;2023-11-21T04:37:23;5.90;99.90
41924;DHT22;27613;48.116;11.656;2023-11-21T04:39:49;6.00;99.90
41924;DHT22;27613;48.116;11.656;2023-11-21T04:42:15;6.10;99.90
41924;DHT22;27613;48.116;11.656;2023-11-21T04:44:40;6.20;99.90
41924;DHT22;27613;48.116;11.656;2023-11-21T04:47:06;6.20;99.90
41924;DHT22;27613;48.116;11.656;2023-11-21T04:49:33;6.30;99.90
41924;DHT22;27613;48.116;11.656;2023-11-21T04:51:59;6.30;99.90
41924;DHT22;27613;48.116;11.656;2023-11-21T04:54:24;6.30;99.90
41924;DHT22;27613;48.116;11.656;2023-11-21T04:56:50;6.30;99.90
41924;DHT22;27613;48.116;11.656;2023-11-21T04:59:15;6.30;99.90
41924;DHT22;27613;48.116;11.656;2023-11-21T05:01:41;6.40;99.90
41924;DHT22;27613;48.116;11.656;2023-11-21T05:04:06;6.30;99.90
41924;DHT22;27613;48.116;11.656;2023-11-21T05:06:34;6.30;99.90
41924;DHT22;27613;48.116;11.656;2023-11-21T05:08:59;6.30;99.90
41924;DHT22;27613;48.116;11.656;2023-11-21T05:11:26;6.30;99.90
41924;DHT22;27613;48.116;11.656;2023-11-21T05:13:51;6.20;99.90
41924;DHT22;27613;48.116;11.656;2023-11-21T05:16:17;6.20;99.90
41924;DHT22;27613;48.116;11.656;2023-11-21T05:18:43;6.20;99.90
41924;DHT22;27613;48.116;11.656;2023-11-21T05:21:08;6.20;99.90
41924;DHT22;27613;48.116;11.656;2023-11-21T05:23:34;6.10;99.90
41924;DHT22;27613;48.116;11.656;2023-11-21T05:26:00;6.10;99.90
41924;DHT22;27613;48.116;11.656;2023-11-21T05:28:25;6.10;99.90
41924;DHT22;27613;48.116;11.656;2023-11-21T05:30:51;6.10;99.90
41924;DHT22;27613;48.116;11.656;2023-11-21T05:33:17;6.10;99.90
41924;DHT22;27613;48.116;11.656;2023-11-21T05:35:42;6.10;99.90
41924;DHT22;27613;48.116;11.656;2023-11-21T05:38:08;6.10;99.90
41924;DHT22;27613;48.116;11.656;2023-11-21T05:40:34;6.10;99.90
41924;DHT22;27613;48.116;11.656;2023-11-21T05:42:59;6.10;99.90
41924;DHT22;27613;48.116;11.656;2023-11-21T05:45:25;6.00;99.90
41924;DHT22;27613;48.116;11.656;2023-11-21T05:47:51;6.10;99.90
41924;DHT22;27613;48.116;11.656;2023-11-21T05:50:17;6.10;99.90
41924;DHT22;27613;48.116;11.656;2023-11-21T05:52:46;6.10;99.90
41924;DHT22;27613;48.116;11.656;2023-11-21T05:55:12;6.10;99.90
41924;DHT22;27613;48.116;11.656;2023-11-21T05:57:39;6.10;99.90
41924;DHT22;27613;48.116;11.656;2023-11-21T06:00:06;6.10;99.90
41924;DHT22;27613;48.116;11.656;2023-11-21T06:02:40;6.10;99.90
41924;DHT22;27613;48.116;11.656;2023-11-21T06:05:07;6.20;99.90
41924;DHT22;27613;48.116;11.656;2023-11-21T06:07:33;6.10;99.90
41924;DHT22;27613;48.116;11.656;2023-11-21T06:09:59;6.10;99.90
41924;DHT22;27613;48.116;11.656;2023-11-21T06:12:24;6.10;99.90
41924;DHT22;27613;48.116;11.656;2023-11-21T06:14:50;6.10;99.90
41924;DHT22;27613;48.116;11.656;2023-11-21T06:17:16;6.10;99.90
41924;DHT22;27613;48.116;11.656;2023-11-21T06:19:43;6.10;99.90
41924;DHT22;27613;48.116;11.656;2023-11-21T06:22:11;6.10;99.90
41924;DHT22;27613;48.116;11.656;2023-11-21T06:24:36;6.10;99.90
41924;DHT22;27613;48.116;11.656;2023-11-21T06:27:04;6.10;99.90
41924;DHT22;27613;48.116;11.656;2023-11-21T06:29:30;6.10;99.90
41924;DHT22;27613;48.116;11.656;2023-11-21T06:31:55;6.10;99.90
41924;DHT22;27613;48.116;11.656;2023-11-21T06:34:21;6.00;99.90
41924;DHT22;27613;48.116;11.656;2023-11-21T06:36:47;6.00;99.90
41924;DHT22;27613;48.116;11.656;2023-11-21T06:39:12;6.00;99.90
41924;DHT22;27613;48.116;11.656;2023-11-21T06:41:40;6.00;99.90
41924;DHT22;27613;48.116;11.656;2023-11-21T06:44:06;6.00;99.90
41924;DHT22;27613;48.116;11.656;2023-11-21T06:46:31;6.00;99.90
41924;DHT22;27613;48.116;11.656;2023-11-21T06:48:57;6.00;99.90
41924;DHT22;27613;48.116;11.656;2023-11-21T06:51:22;6.10;99.90
41924;DHT22;27613;48.116;11.656;2023-11-21T06:53:48;6.10;99.90
41924;DHT22;27613;48.116;11.656;2023-11-21T06:56:19;6.10;99.90
41924;DHT22;27613;48.116;11.656;2023-11-21T06:58:45;6.10;99.90
41924;DHT22;27613;48.116;11.656;2023-11-21T07:01:12;6.10;99.90
41924;DHT22;27613;48.116;11.656;2023-11-21T07:03:38;6.20;99.90
41924;DHT22;27613;48.116;11.656;2023-11-21T07:06:05;6.20;99.90
41924;DHT22;27613;48.116;11.656;2023-11-21T07:08:31;6.20;99.90
41924;DHT22;27613;48.116;11.656;2023-11-21T07:10:56;6.30;99.90
41924;DHT22;27613;48.116;11.656;2023-11-21T07:13:22;6.30;99.90
41924;DHT22;27613;48.116;11.656;2023-11-21T07:15:48;6.30;99.90
41924;DHT22;27613;48.116;11.656;2023-11-21T07:18:14;6.30;99.90
41924;DHT22;27613;48.116;11.656;2023-11-21T07:20:39;6.30;99.90
41924;DHT22;27613;48.116;11.656;2023-11-21T07:23:05;6.30;99.90
41924;DHT22;27613;48.116;11.656;2023-11-21T07:25:31;6.30;99.90
41924;DHT22;27613;48.116;11.656;2023-11-21T07:27:59;6.30;99.90
41924;DHT22;27613;48.116;11.656;2023-11-21T07:30:24;6.30;99.90
41924;DHT22;27613;48.116;11.656;2023-11-21T07:32:50;6.30;99.90
41924;DHT22;27613;48.116;11.656;2023-11-21T07:35:15;6.30;99.90
41924;DHT22;27613;48.116;11.656;2023-11-21T07:37:41;6.40;99.90
41924;DHT22;27613;48.116;11.656;2023-11-21T07:40:08;6.40;99.90
41924;DHT22;27613;48.116;11.656;2023-11-21T07:42:34;6.40;99.90
41924;DHT22;27613;48.116;11.656;2023-11-21T07:45:00;6.40;99.90
41924;DHT22;27613;48.116;11.656;2023-11-21T07:47:26;6.40;99.90
41924;DHT22;27613;48.116;11.656;2023-11-21T07:49:53;6.50;99.90
41924;DHT22;27613;48.116;11.656;2023-11-21T07:52:18;6.50;99.90
41924;DHT22;27613;48.116;11.656;2023-11-21T07:54:46;6.60;99.90
41924;DHT22;27613;48.116;11.656;2023-11-21T07:57:12;6.60;99.90
41924;DHT22;27613;48.116;11.656;2023-11-21T07:59:39;6.60;99.90
41924;DHT22;27613;48.116;11.656;2023-11-21T08:02:06;6.60;99.90
41924;DHT22;27613;48.116;11.656;2023-11-21T08:04:31;6.60;99.90
41924;DHT22;27613;48.116;11.656;2023-11-21T08:06:57;6.70;99.90
41924;DHT22;27613;48.116;11.656;2023-11-21T08:09:23;6.70;99.90
41924;DHT22;27613;48.116;11.656;2023-11-21T08:11:49;6.80;99.90
41924;DHT22;27613;48.116;11.656;2023-11-21T08:14:15;6.80;99.90
41924;DHT22;27613;48.116;11.656;2023-11-21T08:16:40;6.90;99.90
41924;DHT22;27613;48.116;11.656;2023-11-21T08:19:06;7.00;99.90
41924;DHT22;27613;48.116;11.656;2023-11-21T08:21:31;7.10;99.90
41924;DHT22;27613;48.116;11.656;2023-11-21T08:23:57;7.20;99.90
41924;DHT22;27613;48.116;11.656;2023-11-21T08:26:23;7.40;99.90
41924;DHT22;27613;48.116;11.656;2023-11-21T08:28:48;7.50;99.90
41924;DHT22;27613;48.116;11.656;2023-11-21T08:31:14;7.40;99.90
41924;DHT22;27613;48.116;11.656;2023-11-21T08:33:41;7.30;99.90
41924;DHT22;27613;48.116;11.656;2023-11-21T08:36:10;7.30;99.90
41924;DHT22;27613;48.116;11.656;2023-11-21T08:38:38;7.40;99.90
41924;DHT22;27613;48.116;11.656;2023-11-21T08:41:05;7.40;99.90
41924;DHT22;27613;48.116;11.656;2023-11-21T08:43:34;7.30;99.90
41924;DHT22;27613;48.116;11.656;2023-11-21T08:46:00;7.30;99.90
41924;DHT22;27613;48.116;11.656;2023-11-21T08:48:25;7.30;99.90
41924;DHT22;27613;48.116;11.656;2023-11-21T08:50:53;7.30;99.90
41924;DHT22;27613;48.116;11.656;2023-11-21T08:53:19;7.30;99.90
41924;DHT22;27613;48.116;11.656;2023-11-21T08:55:45;7.20;99.90
41924;DHT22;27613;48.116;11.656;2023-11-21T08:58:10;7.30;99.90
41924;DHT22;27613;48.116;11.656;2023-11-21T09:00:37;7.50;99.90
41924;DHT22;27613;48.116;11.656;2023-11-21T09:03:05;8.00;99.90
41924;DHT22;27613;48.116;11.656;2023-11-21T09:05:34;9.70;99.90
41924;DHT22;27613;48.116;11.656;2023-11-21T09:07:59;10.80;99.90
41924;DHT22;27613;48.116;11.656;2023-11-21T09:10:25;11.70;99.80
41924;DHT22;27613;48.116;11.656;2023-11-21T09:12:50;12.40;96.10
41924;DHT22;27613;48.116;11.656;2023-11-21T09:15:17;11.30;95.70
41924;DHT22;27613;48.116;11.656;2023-11-21T09:17:43;10.60;97.40
41924;DHT22;27613;48.116;11.656;2023-11-21T09:20:10;9.90;98.60
41924;DHT22;27613;48.116;11.656;2023-11-21T09:22:35;9.50;99.90
41924;DHT22;27613;48.116;11.656;2023-11-21T09:25:01;9.00;99.90
41924;DHT22;27613;48.116;11.656;2023-11-21T09:27:31;8.70;99.90
41924;DHT22;27613;48.116;11.656;2023-11-21T09:29:56;8.50;99.90
41924;DHT22;27613;48.116;11.656;2023-11-21T09:32:23;8.70;99.90
41924;DHT22;27613;48.116;11.656;2023-11-21T09:34:49;8.70;99.90
41924;DHT22;27613;48.116;11.656;2023-11-21T09:37:16;8.70;99.90
41924;DHT22;27613;48.116;11.656;2023-11-21T09:39:42;8.70;99.90
41924;DHT22;27613;48.116;11.656;2023-11-21T09:42:13;8.50;99.90
41924;DHT22;27613;48.116;11.656;2023-11-21T09:44:51;8.50;99.90
41924;DHT22;27613;48.116;11.656;2023-11-21T09:47:21;8.80;99.90
41924;DHT22;27613;48.116;11.656;2023-11-21T09:49:48;8.80;99.90
41924;DHT22;27613;48.116;11.656;2023-11-21T09:52:27;8.80;99.90
41924;DHT22;27613;48.116;11.656;2023-11-21T09:54:53;9.20;99.90
41924;DHT22;27613;48.116;11.656;2023-11-21T09:57:23;9.10;99.90
41924;DHT22;27613;48.116;11.656;2023-11-21T09:59:53;9.00;99.90
41924;DHT22;27613;48.116;11.656;2023-11-21T10:02:27;8.90;99.90
41924;DHT22;27613;48.116;11.656;2023-11-21T10:04:58;8.80;99.90
41924;DHT22;27613;48.116;11.656;2023-11-21T10:07:25;9.00;99.90
41924;DHT22;27613;48.116;11.656;2023-11-21T10:09:53;8.90;99.90
41924;DHT22;27613;48.116;11.656;2023-11-21T10:12:18;8.90;99.90
41924;DHT22;27613;48.116;11.656;2023-11-21T10:14:48;9.00;99.90
41924;DHT22;27613;48.116;11.656;2023-11-21T10:17:15;9.40;99.90
41924;DHT22;27613;48.116;11.656;2023-11-21T10:19:47;9.60;99.90
41924;DHT22;27613;48.116;11.656;2023-11-21T10:22:14;9.30;99.90
41924;DHT22;27613;48.116;11.656;2023-11-21T10:24:40;9.30;99.90
41924;DHT22;27613;48.116;11.656;2023-11-21T10:27:07;9.70;99.90
41924;DHT22;27613;48.116;11.656;2023-11-21T10:29:33;9.70;99.90
41924;DHT22;27613;48.116;11.656;2023-11-21T10:32:02;9.70;99.90
41924;DHT22;27613;48.116;11.656;2023-11-21T10:34:28;9.70;99.90
41924;DHT22;27613;48.116;11.656;2023-11-21T10:36:53;9.90;99.90
41924;DHT22;27613;48.116;11.656;2023-11-21T10:39:20;9.90;99.90
41924;DHT22;27613;48.116;11.656;2023-11-21T10:41:49;10.10;99.90
41924;DHT22;27613;48.116;11.656;2023-11-21T10:44:16;10.00;99.90
41924;DHT22;27613;48.116;11.656;2023-11-21T10:46:53;9.90;99.90
41924;DHT22;27613;48.116;11.656;2023-11-21T10:49:21;9.80;99.90
41924;DHT22;27613;48.116;11.656;2023-11-21T10:51:47;10.00;99.90
41924;DHT22;27613;48.116;11.656;2023-11-21T10:54:18;10.10;99.90
41924;DHT22;27613;48.116;11.656;2023-11-21T10:56:44;9.80;99.90
41924;DHT22;27613;48.116;11.656;2023-11-21T10:59:10;9.50;99.90
41924;DHT22;27613;48.116;11.656;2023-11-21T11:01:42;9.20;99.90
41924;DHT22;27613;48.116;11.656;2023-11-21T11:04:10;9.20;99.90
41924;DHT22;27613;48.116;11.656;2023-11-21T11:06:43;9.20;99.90
41924;DHT22;27613;48.116;11.656;2023-11-21T11:09:13;9.00;99.90
41924;DHT22;27613;48.116;11.656;2023-11-21T11:11:40;9.20;99.90
41924;DHT22;27613;48.116;11.656;2023-11-21T11:14:09;9.20;99.90
41924;DHT22;27613;48.116;11.656;2023-11-21T11:16:37;9.40;99.90
41924;DHT22;27613;48.116;11.656;2023-11-21T11:19:05;9.70;99.90
41924;DHT22;27613;48.116;11.656;2023-11-21T11:24:13;10.00;99.90
41924;DHT22;27613;48.116;11.656;2023-11-21T11:29:42;9.80;99.90
41924;DHT22;27613;48.116;11.656;2023-11-21T11:35:24;9.60;99.90
41924;DHT22;27613;48.116;11.656;2023-11-21T11:37:52;9.50;99.90
41924;DHT22;27613;48.116;11.656;2023-11-21T11:40:18;9.70;99.90
41924;DHT22;27613;48.116;11.656;2023-11-21T11:42:58;9.70;99.90
41924;DHT22;27613;48.116;11.656;2023-11-21T11:45:31;9.70;99.90
41924;DHT22;27613;48.116;11.656;2023-11-21T11:47:57;9.70;99.90
41924;DHT22;27613;48.116;11.656;2023-11-21T11:50:23;9.70;99.90
41924;DHT22;27613;48.116;11.656;2023-11-21T11:52:51;9.70;99.90
41924;DHT22;27613;48.116;11.656;2023-11-21T11:55:19;9.60;99.90
41924;DHT22;27613;48.116;11.656;2023-11-21T11:57:51;9.40;99.90
41924;DHT22;27613;48.116;11.656;2023-11-21T12:02:57;9.30;99.90
41924;DHT22;27613;48.116;11.656;2023-11-21T12:05:25;9.40;99.90
41924;DHT22;27613;48.116;11.656;2023-11-21T12:07:54;9.20;99.90
41924;DHT22;27613;48.116;11.656;2023-11-21T12:10:22;9.20;99.90
41924;DHT22;27613;48.116;11.656;2023-11-21T12:12:51;9.20;99.90
41924;DHT22;27613;48.116;11.656;2023-11-21T12:15:20;9.20;99.90
41924;DHT22;27613;48.116;11.656;2023-11-21T12:17:47;9.20;99.90
41924;DHT22;27613;48.116;11.656;2023-11-21T12:20:15;9.20;99.90
41924;DHT22;27613;48.116;11.656;2023-11-21T12:22:51;9.30;99.90
41924;DHT22;27613;48.116;11.656;2023-11-21T12:25:21;9.20;99.90
41924;DHT22;27613;48.116;11.656;2023-11-21T12:27:51;9.20;99.90
41924;DHT22;27613;48.116;11.656;2023-11-21T12:30:22;9.00;99.90
41924;DHT22;27613;48.116;11.656;2023-11-21T12:32:50;9.00;99.90
41924;DHT22;27613;48.116;11.656;2023-11-21T12:35:19;9.00;99.90
41924;DHT22;27613;48.116;11.656;2023-11-21T12:37:47;9.00;99.90
41924;DHT22;27613;48.116;11.656;2023-11-21T12:40:13;9.10;99.90
41924;DHT22;27613;48.116;11.656;2023-11-21T12:42:44;9.20;99.90
41924;DHT22;27613;48.116;11.656;2023-11-21T12:47:43;9.30;99.90
41924;DHT22;27613;48.116;11.656;2023-11-21T12:50:10;9.20;99.90
41924;DHT22;27613;48.116;11.656;2023-11-21T12:52:43;9.40;99.90
41924;DHT22;27613;48.116;11.656;2023-11-21T12:55:14;9.50;99.90
41924;DHT22;27613;48.116;11.656;2023-11-21T12:57:44;10.00;99.90
41924;DHT22;27613;48.116;11.656;2023-11-21T13:00:15;10.40;98.80
41924;DHT22;27613;48.116;11.656;2023-11-21T13:02:56;10.80;97.30
41924;DHT22;27613;48.116;11.656;2023-11-21T13:05:29;11.10;96.60
41924;DHT22;27613;48.116;11.656;2023-11-21T13:07:57;11.10;96.00
41924;DHT22;27613;48.116;11.656;2023-11-21T13:10:25;10.90;96.50
41924;DHT22;27613;48.116;11.656;2023-11-21T13:12:51;10.30;97.10
41924;DHT22;27613;48.116;11.656;2023-11-21T13:15:17;10.00;98.00
41924;DHT22;27613;48.116;11.656;2023-11-21T13:17:43;9.80;99.20
41924;DHT22;27613;48.116;11.656;2023-11-21T13:20:12;9.20;99.90
41924;DHT22;27613;48.116;11.656;2023-11-21T13:22:49;8.50;99.90
41924;DHT22;27613;48.116;11.656;2023-11-21T13:25:16;7.70;99.90
41924;DHT22;27613;48.116;11.656;2023-11-21T13:27:44;7.20;99.90
41924;DHT22;27613;48.116;11.656;2023-11-21T13:30:12;7.10;99.90
41924;DHT22;27613;48.116;11.656;2023-11-21T13:32:43;7.00;99.90
41924;DHT22;27613;48.116;11.656;2023-11-21T13:35:10;7.10;99.90
41924;DHT22;27613;48.116;11.656;2023-11-21T13:37:47;7.10;99.90
41924;DHT22;27613;48.116;11.656;2023-11-21T13:40:19;7.20;99.90
41924;DHT22;27613;48.116;11.656;2023-11-21T13:42:48;7.30;99.90
41924;DHT22;27613;48.116;11.656;2023-11-21T13:45:14;7.30;99.90
41924;DHT22;27613;48.116;11.656;2023-11-21T13:47:39;7.50;99.90
41924;DHT22;27613;48.116;11.656;2023-11-21T13:50:05;7.60;99.90
41924;DHT22;27613;48.116;11.656;2023-11-21T13:52:39;7.80;99.90
41924;DHT22;27613;48.116;11.656;2023-11-21T13:55:05;8.00;99.90
41924;DHT22;27613;48.116;11.656;2023-11-21T13:57:31;7.80;99.90
41924;DHT22;27613;48.116;11.656;2023-11-21T13:59:58;7.70;99.90
41924;DHT22;27613;48.116;11.656;2023-11-21T14:02:24;7.70;99.90
41924;DHT22;27613;48.116;11.656;2023-11-21T14:04:57;7.70;99.90
41924;DHT22;27613;48.116;11.656;2023-11-21T14:07:26;7.80;99.90
41924;DHT22;27613;48.116;11.656;2023-11-21T14:10:02;7.80;99.90
41924;DHT22;27613;48.116;11.656;2023-11-21T14:12:28;7.90;99.90
41924;DHT22;27613;48.116;11.656;2023-11-21T14:14:54;8.00;99.90
41924;DHT22;27613;48.116;11.656;2023-11-21T14:17:20;8.00;99.90
41924;DHT22;27613;48.116;11.656;2023-11-21T14:19:49;8.00;99.90
41924;DHT22;27613;48.116;11.656;2023-11-21T14:22:14;8.10;99.90
41924;DHT22;27613;48.116;11.656;2023-11-21T14:24:40;8.10;99.90
41924;DHT22;27613;48.116;11.656;2023-11-21T14:27:13;8.10;99.90
41924;DHT22;27613;48.116;11.656;2023-11-21T14:29:38;7.80;99.90
41924;DHT22;27613;48.116;11.656;2023-11-21T14:32:08;7.70;99.90
41924;DHT22;27613;48.116;11.656;2023-11-21T14:34:34;7.20;99.90
41924;DHT22;27613;48.116;11.656;2023-11-21T14:37:00;7.20;99.90
41924;DHT22;27613;48.116;11.656;2023-11-21T14:39:28;7.20;99.90
41924;DHT22;27613;48.116;11.656;2023-11-21T14:41:54;7.30;99.90
41924;DHT22;27613;48.116;11.656;2023-11-21T14:44:25;7.30;99.90
41924;DHT22;27613;48.116;11.656;2023-11-21T14:46:58;7.30;99.90
41924;DHT22;27613;48.116;11.656;2023-11-21T14:49:24;7.30;99.90
41924;DHT22;27613;48.116;11.656;2023-11-21T14:51:53;7.20;99.90
41924;DHT22;27613;48.116;11.656;2023-11-21T14:54:29;6.90;99.90
41924;DHT22;27613;48.116;11.656;2023-11-21T14:57:12;6.90;99.90
41924;DHT22;27613;48.116;11.656;2023-11-21T14:59:49;6.90;99.90
41924;DHT22;27613;48.116;11.656;2023-11-21T15:02:17;6.90;99.90
41924;DHT22;27613;48.116;11.656;2023-11-21T15:05:08;6.90;99.90
41924;DHT22;27613;48.116;11.656;2023-11-21T15:07:40;6.90;99.90
41924;DHT22;27613;48.116;11.656;2023-11-21T15:10:06;6.90;99.90
41924;DHT22;27613;48.116;11.656;2023-11-21T15:12:36;6.90;99.90
41924;DHT22;27613;48.116;11.656;2023-11-21T15:15:04;6.80;99.90
41924;DHT22;27613;48.116;11.656;2023-11-21T15:17:32;6.70;99.90
41924;DHT22;27613;48.116;11.656;2023-11-21T15:19:57;6.70;99.90
41924;DHT22;27613;48.116;11.656;2023-11-21T15:22:25;6.70;99.90
41924;DHT22;27613;48.116;11.656;2023-11-21T15:24:52;6.70;99.90
41924;DHT22;27613;48.116;11.656;2023-11-21T15:27:19;6.70;99.90
41924;DHT22;27613;48.116;11.656;2023-11-21T15:29:45;6.70;99.90
41924;DHT22;27613;48.116;11.656;2023-11-21T15:32:11;6.70;99.90
41924;DHT22;27613;48.116;11.656;2023-11-21T15:34:37;6.70;99.90
41924;DHT22;27613;48.116;11.656;2023-11-21T15:37:04;6.80;99.90
41924;DHT22;27613;48.116;11.656;2023-11-21T15:39:31;6.80;99.90
41924;DHT22;27613;48.116;11.656;2023-11-21T15:41:57;6.80;99.90
41924;DHT22;27613;48.116;11.656;2023-11-21T15:44:23;6.80;99.90